sensor_id;sensor_type;location;lat;lon;timestamp;P1;durP1;ratioP1;P2;durP2;ratioP2
261;SDS011;114;48.260;10.988;2023-08-21T00:00:05;10.07;;;7.83;;
261;SDS011;114;48.260;10.988;2023-08-21T00:02:32;8.70;;;8.00;;
261;SDS011;114;48.260;10.988;2023-08-21T00:04:58;8.43;;;7.70;;
261;SDS011;114;48.260;10.988;2023-08-21T00:07:23;8.10;;;7.27;;
261;SDS011;114;48.260;10.988;2023-08-21T00:09:49;11.47;;;8.60;;
261;SDS011;114;48.260;10.988;2023-08-21T00:12:15;13.00;;;7.80;;
261;SDS011;114;48.260;10.988;2023-08-21T00:14:41;8.23;;;7.53;;
261;SDS011;114;48.260;10.988;2023-08-21T00:17:07;16.67;;;8.60;;
261;SDS011;114;48.260;10.988;2023-08-21T00:19:33;9.20;;;8.30;;
261;SDS011;114;48.260;10.988;2023-08-21T00:21:59;7.63;;;7.03;;
261;SDS011;114;48.260;10.988;2023-08-21T00:24:25;9.13;;;8.20;;
261;SDS011;114;48.260;10.988;2023-08-21T00:26:51;10.20;;;7.93;;
261;SDS011;114;48.260;10.988;2023-08-21T00:29:17;10.53;;;8.13;;
261;SDS011;114;48.260;10.988;2023-08-21T00:31:43;12.77;;;7.97;;
261;SDS011;114;48.260;10.988;2023-08-21T00:34:09;9.30;;;8.50;;
261;SDS011;114;48.260;10.988;2023-08-21T00:36:34;14.07;;;8.60;;
261;SDS011;114;48.260;10.988;2023-08-21T00:39:00;10.30;;;8.93;;
261;SDS011;114;48.260;10.988;2023-08-21T00:41:26;11.23;;;8.80;;
261;SDS011;114;48.260;10.988;2023-08-21T00:43:52;9.27;;;8.37;;
261;SDS011;114;48.260;10.988;2023-08-21T00:46:17;16.93;;;8.13;;
261;SDS011;114;48.260;10.988;2023-08-21T00:48:43;10.07;;;8.97;;
261;SDS011;114;48.260;10.988;2023-08-21T00:51:09;10.00;;;8.13;;
261;SDS011;114;48.260;10.988;2023-08-21T00:53:37;10.97;;;8.83;;
261;SDS011;114;48.260;10.988;2023-08-21T00:56:03;11.33;;;9.57;;
261;SDS011;114;48.260;10.988;2023-08-21T00:58:29;10.40;;;9.03;;
261;SDS011;114;48.260;10.988;2023-08-21T01:00:55;10.70;;;9.00;;
261;SDS011;114;48.260;10.988;2023-08-21T01:03:23;14.13;;;10.00;;
261;SDS011;114;48.260;10.988;2023-08-21T01:05:49;15.23;;;10.73;;
261;SDS011;114;48.260;10.988;2023-08-21T01:14:01;10.33;;;9.43;;
261;SDS011;114;48.260;10.988;2023-08-21T01:16:39;11.93;;;9.83;;
261;SDS011;114;48.260;10.988;2023-08-21T01:19:10;13.40;;;10.20;;
261;SDS011;114;48.260;10.988;2023-08-21T01:21:51;10.57;;;9.47;;
261;SDS011;114;48.260;10.988;2023-08-21T01:24:19;13.20;;;9.73;;
261;SDS011;114;48.260;10.988;2023-08-21T01:26:45;14.50;;;10.40;;
261;SDS011;114;48.260;10.988;2023-08-21T01:29:11;12.07;;;9.97;;
261;SDS011;114;48.260;10.988;2023-08-21T01:31:37;11.97;;;10.90;;
261;SDS011;114;48.260;10.988;2023-08-21T01:34:08;11.90;;;10.30;;
261;SDS011;114;48.260;10.988;2023-08-21T01:36:36;11.30;;;10.17;;
261;SDS011;114;48.260;10.988;2023-08-21T01:39:02;15.30;;;10.50;;
261;SDS011;114;48.260;10.988;2023-08-21T01:41:28;11.33;;;9.90;;
261;SDS011;114;48.260;10.988;2023-08-21T01:43:54;18.43;;;11.57;;
261;SDS011;114;48.260;10.988;2023-08-21T01:46:20;13.10;;;9.77;;
261;SDS011;114;48.260;10.988;2023-08-21T01:48:46;12.43;;;10.20;;
261;SDS011;114;48.260;10.988;2023-08-21T01:51:12;14.50;;;10.20;;
261;SDS011;114;48.260;10.988;2023-08-21T01:53:38;11.87;;;10.53;;
261;SDS011;114;48.260;10.988;2023-08-21T01:56:04;13.43;;;10.80;;
261;SDS011;114;48.260;10.988;2023-08-21T01:58:29;14.67;;;10.60;;
261;SDS011;114;48.260;10.988;2023-08-21T02:00:56;12.33;;;11.10;;
261;SDS011;114;48.260;10.988;2023-08-21T02:03:24;15.13;;;11.13;;
261;SDS011;114;48.260;10.988;2023-08-21T02:05:50;12.07;;;10.60;;
261;SDS011;114;48.260;10.988;2023-08-21T02:08:20;15.60;;;11.10;;
261;SDS011;114;48.260;10.988;2023-08-21T02:10:50;12.80;;;11.50;;
261;SDS011;114;48.260;10.988;2023-08-21T02:13:16;12.90;;;11.70;;
261;SDS011;114;48.260;10.988;2023-08-21T02:15:41;11.67;;;10.70;;
261;SDS011;114;48.260;10.988;2023-08-21T02:18:07;18.30;;;10.70;;
261;SDS011;114;48.260;10.988;2023-08-21T02:20:33;15.50;;;11.17;;
261;SDS011;114;48.260;10.988;2023-08-21T02:22:59;14.43;;;11.07;;
261;SDS011;114;48.260;10.988;2023-08-21T02:25:24;17.07;;;10.93;;
261;SDS011;114;48.260;10.988;2023-08-21T02:27:50;16.73;;;13.50;;
261;SDS011;114;48.260;10.988;2023-08-21T02:30:16;15.60;;;12.90;;
261;SDS011;114;48.260;10.988;2023-08-21T02:32:41;15.90;;;14.20;;
261;SDS011;114;48.260;10.988;2023-08-21T02:35:08;14.70;;;11.90;;
261;SDS011;114;48.260;10.988;2023-08-21T02:37:34;13.13;;;11.90;;
261;SDS011;114;48.260;10.988;2023-08-21T02:40:04;11.67;;;10.67;;
261;SDS011;114;48.260;10.988;2023-08-21T02:42:33;11.90;;;10.77;;
261;SDS011;114;48.260;10.988;2023-08-21T02:44:59;10.97;;;9.93;;
261;SDS011;114;48.260;10.988;2023-08-21T02:47:28;11.93;;;10.83;;
261;SDS011;114;48.260;10.988;2023-08-21T02:49:54;13.53;;;11.40;;
261;SDS011;114;48.260;10.988;2023-08-21T02:52:20;11.10;;;10.20;;
261;SDS011;114;48.260;10.988;2023-08-21T02:54:46;12.43;;;11.33;;
261;SDS011;114;48.260;10.988;2023-08-21T02:57:12;13.00;;;11.10;;
261;SDS011;114;48.260;10.988;2023-08-21T02:59:38;16.80;;;10.70;;
261;SDS011;114;48.260;10.988;2023-08-21T03:02:03;11.17;;;10.17;;
261;SDS011;114;48.260;10.988;2023-08-21T03:04:29;13.47;;;11.50;;
261;SDS011;114;48.260;10.988;2023-08-21T03:06:55;18.17;;;10.93;;
261;SDS011;114;48.260;10.988;2023-08-21T03:09:20;12.50;;;10.57;;
261;SDS011;114;48.260;10.988;2023-08-21T03:11:46;12.63;;;11.10;;
261;SDS011;114;48.260;10.988;2023-08-21T03:14:12;13.77;;;12.53;;
261;SDS011;114;48.260;10.988;2023-08-21T03:16:38;14.90;;;12.20;;
261;SDS011;114;48.260;10.988;2023-08-21T03:19:03;18.50;;;11.60;;
261;SDS011;114;48.260;10.988;2023-08-21T03:21:29;18.10;;;11.87;;
261;SDS011;114;48.260;10.988;2023-08-21T03:23:56;13.73;;;12.37;;
261;SDS011;114;48.260;10.988;2023-08-21T03:26:23;21.87;;;11.97;;
261;SDS011;114;48.260;10.988;2023-08-21T03:28:49;18.40;;;12.30;;
261;SDS011;114;48.260;10.988;2023-08-21T03:31:15;20.90;;;11.23;;
261;SDS011;114;48.260;10.988;2023-08-21T03:33:41;14.27;;;12.80;;
261;SDS011;114;48.260;10.988;2023-08-21T03:36:07;16.93;;;11.93;;
261;SDS011;114;48.260;10.988;2023-08-21T03:38:33;12.77;;;11.57;;
261;SDS011;114;48.260;10.988;2023-08-21T03:40:59;15.93;;;12.90;;
261;SDS011;114;48.260;10.988;2023-08-21T03:43:25;14.53;;;13.10;;
261;SDS011;114;48.260;10.988;2023-08-21T03:45:51;15.60;;;11.53;;
261;SDS011;114;48.260;10.988;2023-08-21T03:48:17;13.87;;;12.30;;
261;SDS011;114;48.260;10.988;2023-08-21T03:50:43;11.60;;;10.40;;
261;SDS011;114;48.260;10.988;2023-08-21T03:53:08;14.47;;;12.20;;
261;SDS011;114;48.260;10.988;2023-08-21T03:55:34;12.23;;;10.93;;
261;SDS011;114;48.260;10.988;2023-08-21T03:58:00;15.90;;;12.70;;
261;SDS011;114;48.260;10.988;2023-08-21T04:00:28;17.30;;;12.23;;
261;SDS011;114;48.260;10.988;2023-08-21T04:02:54;17.33;;;12.20;;
261;SDS011;114;48.260;10.988;2023-08-21T04:05:20;17.20;;;12.30;;
261;SDS011;114;48.260;10.988;2023-08-21T04:07:46;19.63;;;12.77;;
261;SDS011;114;48.260;10.988;2023-08-21T04:10:12;19.13;;;12.20;;
261;SDS011;114;48.260;10.988;2023-08-21T04:12:37;12.03;;;10.93;;
261;SDS011;114;48.260;10.988;2023-08-21T04:15:03;12.57;;;11.27;;
261;SDS011;114;48.260;10.988;2023-08-21T04:17:31;17.10;;;13.47;;
261;SDS011;114;48.260;10.988;2023-08-21T04:19:57;19.77;;;13.40;;
261;SDS011;114;48.260;10.988;2023-08-21T04:22:22;19.13;;;11.70;;
261;SDS011;114;48.260;10.988;2023-08-21T04:24:48;14.93;;;13.37;;
261;SDS011;114;48.260;10.988;2023-08-21T04:27:14;13.53;;;12.23;;
261;SDS011;114;48.260;10.988;2023-08-21T04:29:40;21.03;;;12.10;;
261;SDS011;114;48.260;10.988;2023-08-21T04:32:05;13.13;;;11.73;;
261;SDS011;114;48.260;10.988;2023-08-21T04:34:34;15.70;;;11.97;;
261;SDS011;114;48.260;10.988;2023-08-21T04:37:00;14.83;;;12.03;;
261;SDS011;114;48.260;10.988;2023-08-21T04:39:26;18.67;;;12.73;;
261;SDS011;114;48.260;10.988;2023-08-21T04:41:52;14.20;;;12.03;;
261;SDS011;114;48.260;10.988;2023-08-21T04:44:18;16.00;;;12.20;;
261;SDS011;114;48.260;10.988;2023-08-21T04:46:47;13.87;;;12.57;;
261;SDS011;114;48.260;10.988;2023-08-21T04:49:13;15.43;;;11.70;;
261;SDS011;114;48.260;10.988;2023-08-21T04:51:39;13.27;;;11.83;;
261;SDS011;114;48.260;10.988;2023-08-21T04:54:05;15.80;;;12.00;;
261;SDS011;114;48.260;10.988;2023-08-21T04:56:30;24.97;;;12.80;;
261;SDS011;114;48.260;10.988;2023-08-21T04:58:56;12.53;;;11.23;;
261;SDS011;114;48.260;10.988;2023-08-21T05:01:22;19.90;;;12.33;;
261;SDS011;114;48.260;10.988;2023-08-21T05:03:49;12.97;;;11.40;;
261;SDS011;114;48.260;10.988;2023-08-21T05:06:15;14.20;;;12.90;;
261;SDS011;114;48.260;10.988;2023-08-21T05:08:41;15.87;;;12.00;;
261;SDS011;114;48.260;10.988;2023-08-21T05:11:07;16.60;;;11.50;;
261;SDS011;114;48.260;10.988;2023-08-21T05:13:33;12.80;;;11.23;;
261;SDS011;114;48.260;10.988;2023-08-21T05:15:59;12.57;;;11.20;;
261;SDS011;114;48.260;10.988;2023-08-21T05:18:25;16.73;;;10.83;;
261;SDS011;114;48.260;10.988;2023-08-21T05:20:53;14.40;;;11.53;;
261;SDS011;114;48.260;10.988;2023-08-21T05:23:19;11.17;;;10.27;;
261;SDS011;114;48.260;10.988;2023-08-21T05:25:46;11.27;;;10.27;;
261;SDS011;114;48.260;10.988;2023-08-21T05:28:14;13.03;;;9.43;;
261;SDS011;114;48.260;10.988;2023-08-21T05:30:40;11.40;;;10.30;;
261;SDS011;114;48.260;10.988;2023-08-21T05:33:06;11.37;;;9.37;;
261;SDS011;114;48.260;10.988;2023-08-21T05:35:33;13.40;;;10.40;;
261;SDS011;114;48.260;10.988;2023-08-21T05:38:01;11.80;;;10.60;;
261;SDS011;114;48.260;10.988;2023-08-21T05:40:28;12.23;;;9.20;;
261;SDS011;114;48.260;10.988;2023-08-21T05:42:53;10.10;;;8.83;;
261;SDS011;114;48.260;10.988;2023-08-21T05:45:19;11.23;;;9.57;;
261;SDS011;114;48.260;10.988;2023-08-21T05:47:45;18.33;;;9.93;;
261;SDS011;114;48.260;10.988;2023-08-21T05:50:11;14.23;;;9.90;;
261;SDS011;114;48.260;10.988;2023-08-21T05:52:36;12.00;;;9.60;;
261;SDS011;114;48.260;10.988;2023-08-21T05:55:04;14.97;;;9.43;;
261;SDS011;114;48.260;10.988;2023-08-21T05:57:30;15.90;;;10.30;;
261;SDS011;114;48.260;10.988;2023-08-21T05:59:56;12.77;;;9.40;;
261;SDS011;114;48.260;10.988;2023-08-21T06:02:21;10.37;;;9.07;;
261;SDS011;114;48.260;10.988;2023-08-21T06:04:47;14.30;;;9.27;;
261;SDS011;114;48.260;10.988;2023-08-21T06:07:13;10.60;;;8.80;;
261;SDS011;114;48.260;10.988;2023-08-21T06:09:39;10.83;;;8.37;;
261;SDS011;114;48.260;10.988;2023-08-21T06:12:05;10.57;;;8.90;;
261;SDS011;114;48.260;10.988;2023-08-21T06:14:31;17.23;;;9.30;;
261;SDS011;114;48.260;10.988;2023-08-21T06:16:57;14.33;;;7.70;;
261;SDS011;114;48.260;10.988;2023-08-21T06:19:24;16.43;;;9.73;;
261;SDS011;114;48.260;10.988;2023-08-21T06:21:50;9.80;;;8.50;;
261;SDS011;114;48.260;10.988;2023-08-21T06:24:16;21.20;;;8.30;;
261;SDS011;114;48.260;10.988;2023-08-21T06:26:42;11.93;;;9.13;;
261;SDS011;114;48.260;10.988;2023-08-21T06:29:08;15.40;;;9.30;;
261;SDS011;114;48.260;10.988;2023-08-21T06:31:34;10.97;;;9.03;;
261;SDS011;114;48.260;10.988;2023-08-21T06:34:00;19.40;;;8.10;;
261;SDS011;114;48.260;10.988;2023-08-21T06:36:26;18.23;;;9.20;;
261;SDS011;114;48.260;10.988;2023-08-21T06:38:51;16.10;;;8.77;;
261;SDS011;114;48.260;10.988;2023-08-21T06:41:17;12.13;;;7.87;;
261;SDS011;114;48.260;10.988;2023-08-21T06:43:43;8.97;;;8.10;;
261;SDS011;114;48.260;10.988;2023-08-21T06:46:09;9.87;;;7.93;;
261;SDS011;114;48.260;10.988;2023-08-21T06:48:37;13.90;;;7.87;;
261;SDS011;114;48.260;10.988;2023-08-21T06:51:05;15.10;;;8.40;;
261;SDS011;114;48.260;10.988;2023-08-21T06:53:30;12.13;;;7.83;;
261;SDS011;114;48.260;10.988;2023-08-21T06:55:56;15.23;;;8.97;;
261;SDS011;114;48.260;10.988;2023-08-21T06:58:22;12.03;;;8.00;;
261;SDS011;114;48.260;10.988;2023-08-21T07:00:48;14.80;;;8.27;;
261;SDS011;114;48.260;10.988;2023-08-21T07:03:14;13.93;;;7.10;;
261;SDS011;114;48.260;10.988;2023-08-21T07:05:40;8.40;;;7.30;;
261;SDS011;114;48.260;10.988;2023-08-21T07:08:05;19.33;;;8.63;;
261;SDS011;114;48.260;10.988;2023-08-21T07:10:38;8.50;;;7.70;;
261;SDS011;114;48.260;10.988;2023-08-21T07:13:04;12.90;;;7.00;;
261;SDS011;114;48.260;10.988;2023-08-21T07:15:30;11.03;;;8.33;;
261;SDS011;114;48.260;10.988;2023-08-21T07:17:55;15.47;;;8.60;;
261;SDS011;114;48.260;10.988;2023-08-21T07:20:21;13.33;;;7.87;;
261;SDS011;114;48.260;10.988;2023-08-21T07:22:47;20.80;;;7.43;;
261;SDS011;114;48.260;10.988;2023-08-21T07:25:14;24.97;;;7.33;;
261;SDS011;114;48.260;10.988;2023-08-21T07:27:40;25.20;;;7.10;;
261;SDS011;114;48.260;10.988;2023-08-21T07:30:06;30.87;;;6.73;;
261;SDS011;114;48.260;10.988;2023-08-21T07:32:32;11.73;;;8.57;;
261;SDS011;114;48.260;10.988;2023-08-21T07:34:58;16.53;;;7.73;;
261;SDS011;114;48.260;10.988;2023-08-21T07:37:24;11.13;;;7.83;;
261;SDS011;114;48.260;10.988;2023-08-21T07:39:49;19.63;;;7.70;;
261;SDS011;114;48.260;10.988;2023-08-21T07:42:15;17.50;;;6.80;;
261;SDS011;114;48.260;10.988;2023-08-21T07:44:41;16.80;;;7.13;;
261;SDS011;114;48.260;10.988;2023-08-21T07:47:07;17.03;;;7.17;;
261;SDS011;114;48.260;10.988;2023-08-21T07:49:32;7.00;;;6.33;;
261;SDS011;114;48.260;10.988;2023-08-21T07:51:58;8.27;;;6.30;;
261;SDS011;114;48.260;10.988;2023-08-21T07:54:24;8.70;;;7.80;;
261;SDS011;114;48.260;10.988;2023-08-21T07:56:50;10.23;;;6.70;;
261;SDS011;114;48.260;10.988;2023-08-21T07:59:16;9.97;;;6.70;;
261;SDS011;114;48.260;10.988;2023-08-21T08:01:42;10.30;;;6.90;;
261;SDS011;114;48.260;10.988;2023-08-21T08:04:08;10.17;;;6.13;;
261;SDS011;114;48.260;10.988;2023-08-21T08:06:33;13.67;;;5.70;;
261;SDS011;114;48.260;10.988;2023-08-21T08:08:59;7.40;;;5.47;;
261;SDS011;114;48.260;10.988;2023-08-21T08:11:25;6.10;;;5.50;;
261;SDS011;114;48.260;10.988;2023-08-21T08:13:51;10.13;;;6.37;;
261;SDS011;114;48.260;10.988;2023-08-21T08:16:17;16.10;;;6.47;;
261;SDS011;114;48.260;10.988;2023-08-21T08:18:42;11.68;;;6.07;;
261;SDS011;114;48.260;10.988;2023-08-21T08:21:08;12.18;;;5.82;;
261;SDS011;114;48.260;10.988;2023-08-21T08:23:35;6.65;;;5.70;;
261;SDS011;114;48.260;10.988;2023-08-21T08:26:01;8.52;;;5.22;;
261;SDS011;114;48.260;10.988;2023-08-21T08:28:27;8.63;;;5.80;;
261;SDS011;114;48.260;10.988;2023-08-21T08:30:53;12.77;;;5.20;;
261;SDS011;114;48.260;10.988;2023-08-21T08:33:20;10.27;;;5.32;;
261;SDS011;114;48.260;10.988;2023-08-21T08:35:46;6.72;;;5.57;;
261;SDS011;114;48.260;10.988;2023-08-21T08:38:11;6.55;;;5.40;;
261;SDS011;114;48.260;10.988;2023-08-21T08:40:41;5.40;;;4.90;;
261;SDS011;114;48.260;10.988;2023-08-21T08:43:13;5.90;;;5.10;;
261;SDS011;114;48.260;10.988;2023-08-21T08:45:40;8.07;;;5.82;;
261;SDS011;114;48.260;10.988;2023-08-21T08:48:06;7.43;;;5.72;;
261;SDS011;114;48.260;10.988;2023-08-21T08:50:33;7.43;;;4.63;;
261;SDS011;114;48.260;10.988;2023-08-21T08:53:00;11.98;;;6.15;;
261;SDS011;114;48.260;10.988;2023-08-21T08:55:26;9.73;;;5.63;;
261;SDS011;114;48.260;10.988;2023-08-21T08:57:52;13.57;;;6.40;;
261;SDS011;114;48.260;10.988;2023-08-21T09:00:19;9.80;;;5.13;;
261;SDS011;114;48.260;10.988;2023-08-21T09:02:46;7.57;;;4.85;;
261;SDS011;114;48.260;10.988;2023-08-21T09:05:11;10.88;;;5.40;;
261;SDS011;114;48.260;10.988;2023-08-21T09:07:38;10.13;;;5.07;;
261;SDS011;114;48.260;10.988;2023-08-21T09:10:08;12.20;;;4.70;;
261;SDS011;114;48.260;10.988;2023-08-21T09:12:39;5.22;;;4.75;;
261;SDS011;114;48.260;10.988;2023-08-21T09:15:07;6.00;;;5.40;;
261;SDS011;114;48.260;10.988;2023-08-21T09:17:33;6.10;;;5.10;;
261;SDS011;114;48.260;10.988;2023-08-21T09:20:03;7.75;;;5.28;;
261;SDS011;114;48.260;10.988;2023-08-21T09:22:29;11.30;;;4.93;;
261;SDS011;114;48.260;10.988;2023-08-21T09:25:04;9.05;;;5.85;;
261;SDS011;114;48.260;10.988;2023-08-21T09:27:33;8.27;;;5.90;;
261;SDS011;114;48.260;10.988;2023-08-21T09:30:00;8.63;;;5.53;;
261;SDS011;114;48.260;10.988;2023-08-21T09:32:55;8.85;;;5.93;;
261;SDS011;114;48.260;10.988;2023-08-21T09:35:31;8.82;;;5.53;;
261;SDS011;114;48.260;10.988;2023-08-21T09:37:58;7.70;;;5.40;;
261;SDS011;114;48.260;10.988;2023-08-21T09:40:24;5.93;;;5.22;;
261;SDS011;114;48.260;10.988;2023-08-21T09:42:54;10.63;;;5.47;;
261;SDS011;114;48.260;10.988;2023-08-21T09:45:22;5.95;;;5.45;;
261;SDS011;114;48.260;10.988;2023-08-21T09:47:49;7.25;;;5.45;;
261;SDS011;114;48.260;10.988;2023-08-21T09:50:17;6.18;;;5.78;;
261;SDS011;114;48.260;10.988;2023-08-21T09:52:43;6.15;;;5.53;;
261;SDS011;114;48.260;10.988;2023-08-21T09:55:10;5.90;;;5.10;;
261;SDS011;114;48.260;10.988;2023-08-21T09:57:41;12.10;;;5.32;;
261;SDS011;114;48.260;10.988;2023-08-21T10:00:07;5.65;;;5.15;;
261;SDS011;114;48.260;10.988;2023-08-21T10:02:41;8.32;;;5.97;;
261;SDS011;114;48.260;10.988;2023-08-21T10:05:11;6.63;;;5.97;;
261;SDS011;114;48.260;10.988;2023-08-21T10:07:39;5.80;;;5.15;;
261;SDS011;114;48.260;10.988;2023-08-21T10:10:08;7.07;;;5.72;;
261;SDS011;114;48.260;10.988;2023-08-21T10:12:34;5.80;;;4.80;;
261;SDS011;114;48.260;10.988;2023-08-21T10:15:00;6.05;;;5.25;;
261;SDS011;114;48.260;10.988;2023-08-21T10:17:27;8.40;;;5.18;;
261;SDS011;114;48.260;10.988;2023-08-21T10:19:53;8.48;;;5.95;;
261;SDS011;114;48.260;10.988;2023-08-21T10:25:26;6.97;;;5.82;;
261;SDS011;114;48.260;10.988;2023-08-21T10:27:53;8.20;;;5.47;;
261;SDS011;114;48.260;10.988;2023-08-21T10:30:23;9.38;;;5.40;;
261;SDS011;114;48.260;10.988;2023-08-21T10:32:51;5.63;;;5.22;;
261;SDS011;114;48.260;10.988;2023-08-21T10:35:19;6.20;;;5.75;;
261;SDS011;114;48.260;10.988;2023-08-21T10:40:36;11.73;;;4.60;;
261;SDS011;114;48.260;10.988;2023-08-21T10:43:04;7.35;;;5.15;;
261;SDS011;114;48.260;10.988;2023-08-21T10:45:53;6.13;;;5.55;;
261;SDS011;114;48.260;10.988;2023-08-21T10:48:22;10.82;;;6.38;;
261;SDS011;114;48.260;10.988;2023-08-21T10:50:48;11.55;;;5.30;;
261;SDS011;114;48.260;10.988;2023-08-21T10:53:15;6.07;;;5.45;;
261;SDS011;114;48.260;10.988;2023-08-21T10:55:41;6.75;;;5.28;;
261;SDS011;114;48.260;10.988;2023-08-21T10:58:08;5.72;;;5.28;;
261;SDS011;114;48.260;10.988;2023-08-21T11:00:36;5.53;;;4.95;;
261;SDS011;114;48.260;10.988;2023-08-21T11:03:02;8.57;;;5.03;;
261;SDS011;114;48.260;10.988;2023-08-21T11:05:31;6.00;;;4.32;;
261;SDS011;114;48.260;10.988;2023-08-21T11:07:57;6.00;;;4.75;;
261;SDS011;114;48.260;10.988;2023-08-21T11:10:23;5.20;;;4.80;;
261;SDS011;114;48.260;10.988;2023-08-21T11:12:53;14.50;;;4.63;;
261;SDS011;114;48.260;10.988;2023-08-21T11:15:22;4.68;;;4.32;;
261;SDS011;114;48.260;10.988;2023-08-21T11:17:53;4.10;;;3.78;;
261;SDS011;114;48.260;10.988;2023-08-21T11:20:30;4.65;;;4.20;;
261;SDS011;114;48.260;10.988;2023-08-21T11:22:58;9.07;;;5.00;;
261;SDS011;114;48.260;10.988;2023-08-21T11:25:24;4.88;;;4.43;;
261;SDS011;114;48.260;10.988;2023-08-21T11:27:50;5.43;;;4.93;;
261;SDS011;114;48.260;10.988;2023-08-21T11:30:17;11.73;;;4.70;;
261;SDS011;114;48.260;10.988;2023-08-21T11:32:43;14.32;;;4.20;;
261;SDS011;114;48.260;10.988;2023-08-21T11:35:08;5.43;;;4.53;;
261;SDS011;114;48.260;10.988;2023-08-21T11:37:34;12.80;;;4.72;;
261;SDS011;114;48.260;10.988;2023-08-21T11:40:08;8.93;;;4.30;;
261;SDS011;114;48.260;10.988;2023-08-21T11:42:34;3.30;;;3.20;;
261;SDS011;114;48.260;10.988;2023-08-21T11:45:01;6.63;;;3.75;;
261;SDS011;114;48.260;10.988;2023-08-21T11:47:34;5.47;;;3.83;;
261;SDS011;114;48.260;10.988;2023-08-21T11:50:06;8.02;;;3.80;;
261;SDS011;114;48.260;10.988;2023-08-21T11:52:34;4.30;;;3.92;;
261;SDS011;114;48.260;10.988;2023-08-21T11:55:06;5.50;;;4.60;;
261;SDS011;114;48.260;10.988;2023-08-21T11:57:45;9.93;;;3.90;;
261;SDS011;114;48.260;10.988;2023-08-21T12:00:14;8.75;;;3.55;;
261;SDS011;114;48.260;10.988;2023-08-21T12:02:53;3.90;;;3.60;;
261;SDS011;114;48.260;10.988;2023-08-21T12:05:22;6.78;;;3.78;;
261;SDS011;114;48.260;10.988;2023-08-21T12:07:48;3.88;;;3.58;;
261;SDS011;114;48.260;10.988;2023-08-21T12:10:21;6.55;;;3.50;;
261;SDS011;114;48.260;10.988;2023-08-21T12:12:48;6.40;;;3.42;;
261;SDS011;114;48.260;10.988;2023-08-21T12:15:14;3.22;;;2.92;;
261;SDS011;114;48.260;10.988;2023-08-21T12:17:39;5.35;;;3.45;;
261;SDS011;114;48.260;10.988;2023-08-21T12:20:05;8.98;;;2.72;;
261;SDS011;114;48.260;10.988;2023-08-21T12:22:35;5.75;;;2.70;;
261;SDS011;114;48.260;10.988;2023-08-21T12:25:05;3.58;;;2.63;;
261;SDS011;114;48.260;10.988;2023-08-21T12:27:32;3.40;;;2.65;;
261;SDS011;114;48.260;10.988;2023-08-21T12:29:58;3.05;;;2.45;;
261;SDS011;114;48.260;10.988;2023-08-21T12:32:23;3.25;;;2.22;;
261;SDS011;114;48.260;10.988;2023-08-21T12:34:49;2.55;;;2.35;;
261;SDS011;114;48.260;10.988;2023-08-21T12:37:18;2.03;;;1.92;;
261;SDS011;114;48.260;10.988;2023-08-21T12:39:43;7.63;;;2.47;;
261;SDS011;114;48.260;10.988;2023-08-21T12:42:09;2.30;;;2.20;;
261;SDS011;114;48.260;10.988;2023-08-21T12:44:35;2.30;;;2.20;;
261;SDS011;114;48.260;10.988;2023-08-21T12:47:01;1.92;;;1.83;;
261;SDS011;114;48.260;10.988;2023-08-21T12:49:26;3.72;;;2.47;;
261;SDS011;114;48.260;10.988;2023-08-21T12:51:52;4.20;;;2.20;;
261;SDS011;114;48.260;10.988;2023-08-21T12:54:18;2.72;;;2.00;;
261;SDS011;114;48.260;10.988;2023-08-21T12:56:44;2.30;;;2.20;;
261;SDS011;114;48.260;10.988;2023-08-21T12:59:10;9.55;;;1.98;;
261;SDS011;114;48.260;10.988;2023-08-21T13:01:36;2.05;;;1.92;;
261;SDS011;114;48.260;10.988;2023-08-21T13:04:03;2.95;;;2.10;;
261;SDS011;114;48.260;10.988;2023-08-21T13:06:30;2.25;;;1.88;;
261;SDS011;114;48.260;10.988;2023-08-21T13:08:56;2.05;;;1.85;;
261;SDS011;114;48.260;10.988;2023-08-21T13:11:22;2.38;;;1.95;;
261;SDS011;114;48.260;10.988;2023-08-21T13:13:48;7.53;;;2.13;;
261;SDS011;114;48.260;10.988;2023-08-21T13:16:13;4.75;;;1.45;;
261;SDS011;114;48.260;10.988;2023-08-21T13:18:39;7.43;;;2.17;;
261;SDS011;114;48.260;10.988;2023-08-21T13:21:05;4.68;;;1.45;;
261;SDS011;114;48.260;10.988;2023-08-21T13:23:31;8.63;;;1.50;;
261;SDS011;114;48.260;10.988;2023-08-21T13:25:59;2.97;;;1.63;;
261;SDS011;114;48.260;10.988;2023-08-21T13:28:25;3.83;;;1.70;;
261;SDS011;114;48.260;10.988;2023-08-21T13:30:51;5.25;;;1.40;;
261;SDS011;114;48.260;10.988;2023-08-21T13:33:17;3.33;;;1.77;;
261;SDS011;114;48.260;10.988;2023-08-21T13:35:46;4.00;;;1.55;;
261;SDS011;114;48.260;10.988;2023-08-21T13:38:12;2.95;;;1.45;;
261;SDS011;114;48.260;10.988;2023-08-21T13:40:38;3.75;;;1.40;;
261;SDS011;114;48.260;10.988;2023-08-21T13:43:06;1.80;;;1.40;;
261;SDS011;114;48.260;10.988;2023-08-21T13:45:32;2.10;;;1.88;;
261;SDS011;114;48.260;10.988;2023-08-21T13:47:58;4.80;;;1.75;;
261;SDS011;114;48.260;10.988;2023-08-21T13:50:24;1.40;;;1.30;;
261;SDS011;114;48.260;10.988;2023-08-21T13:52:50;7.63;;;1.88;;
261;SDS011;114;48.260;10.988;2023-08-21T13:55:16;1.80;;;1.48;;
261;SDS011;114;48.260;10.988;2023-08-21T13:57:42;3.55;;;1.70;;
261;SDS011;114;48.260;10.988;2023-08-21T14:00:08;2.63;;;1.60;;
261;SDS011;114;48.260;10.988;2023-08-21T14:02:39;8.70;;;2.75;;
261;SDS011;114;48.260;10.988;2023-08-21T14:05:06;11.13;;;2.17;;
261;SDS011;114;48.260;10.988;2023-08-21T14:07:32;3.50;;;1.52;;
261;SDS011;114;48.260;10.988;2023-08-21T14:09:59;4.93;;;1.60;;
261;SDS011;114;48.260;10.988;2023-08-21T14:12:27;4.43;;;2.70;;
261;SDS011;114;48.260;10.988;2023-08-21T14:14:54;8.00;;;1.70;;
261;SDS011;114;48.260;10.988;2023-08-21T14:17:20;3.45;;;1.48;;
261;SDS011;114;48.260;10.988;2023-08-21T14:19:45;2.90;;;1.73;;
261;SDS011;114;48.260;10.988;2023-08-21T14:22:12;4.82;;;2.05;;
261;SDS011;114;48.260;10.988;2023-08-21T14:24:38;3.97;;;1.58;;
261;SDS011;114;48.260;10.988;2023-08-21T14:27:04;2.70;;;2.17;;
261;SDS011;114;48.260;10.988;2023-08-21T14:29:29;3.80;;;1.60;;
261;SDS011;114;48.260;10.988;2023-08-21T14:31:56;3.70;;;1.20;;
261;SDS011;114;48.260;10.988;2023-08-21T14:34:22;3.08;;;1.10;;
261;SDS011;114;48.260;10.988;2023-08-21T14:36:48;1.55;;;1.27;;
261;SDS011;114;48.260;10.988;2023-08-21T14:39:14;5.93;;;1.20;;
261;SDS011;114;48.260;10.988;2023-08-21T14:41:41;3.15;;;1.60;;
261;SDS011;114;48.260;10.988;2023-08-21T14:44:07;7.88;;;0.95;;
261;SDS011;114;48.260;10.988;2023-08-21T14:46:33;10.13;;;1.35;;
261;SDS011;114;48.260;10.988;2023-08-21T14:48:59;2.42;;;1.17;;
261;SDS011;114;48.260;10.988;2023-08-21T14:51:25;1.23;;;0.93;;
261;SDS011;114;48.260;10.988;2023-08-21T14:53:51;3.10;;;0.98;;
261;SDS011;114;48.260;10.988;2023-08-21T14:56:17;5.00;;;1.45;;
261;SDS011;114;48.260;10.988;2023-08-21T14:58:42;3.38;;;1.30;;
261;SDS011;114;48.260;10.988;2023-08-21T15:01:09;3.72;;;1.30;;
261;SDS011;114;48.260;10.988;2023-08-21T15:03:38;2.58;;;1.10;;
261;SDS011;114;48.260;10.988;2023-08-21T15:06:04;1.63;;;1.35;;
261;SDS011;114;48.260;10.988;2023-08-21T15:08:31;1.23;;;1.13;;
261;SDS011;114;48.260;10.988;2023-08-21T15:10:56;2.25;;;1.20;;
261;SDS011;114;48.260;10.988;2023-08-21T15:13:22;4.35;;;1.27;;
261;SDS011;114;48.260;10.988;2023-08-21T15:15:48;4.00;;;1.10;;
261;SDS011;114;48.260;10.988;2023-08-21T15:18:14;4.70;;;1.35;;
261;SDS011;114;48.260;10.988;2023-08-21T15:20:39;3.80;;;1.40;;
261;SDS011;114;48.260;10.988;2023-08-21T15:23:05;1.40;;;1.30;;
261;SDS011;114;48.260;10.988;2023-08-21T15:25:31;1.50;;;1.02;;